Time;durP1;ratioP1;P1;durP2;ratioP2;P2;SDS_P1;SDS_P2;PMS_P1;PMS_P2;Temp;Humidity;BMP_temperature;BMP_pressure;BME280_temperature;BME280_humidity;BME280_pressure;Samples;Min_cycle;Max_cycle;Signal;HPM_P1;HPM_P2
2022/11/27 00:00:29;;;;;;;7.43;4.97;;;;;;;4.89;100.00;99754.94;4121423;28;20206;-45
2022/11/27 00:02:31;;;;;;;5.05;4.55;;;;;;;4.77;100.00;99759.13;4117491;28;20313;-45
2022/11/27 00:04:40;;;;;;;4.70;4.30;;;;;;;4.54;100.00;99758.28;4115616;28;20228;-45
2022/11/27 00:06:42;;;;;;;8.00;4.40;;;;;;;4.45;100.00;99759.38;4118588;28;20217;-46
2022/11/27 00:08:45;;;;;;;5.60;4.82;;;;;;;4.58;100.00;99759.63;4124223;28;20225;-46
2022/11/27 00:10:46;;;;;;;7.95;4.57;;;;;;;4.51;100.00;99752.38;4123378;28;20221;-47
2022/11/27 00:12:49;;;;;;;5.03;4.43;;;;;;;4.57;100.00;99751.66;4113684;28;20212;-45
2022/11/27 00:14:50;;;;;;;5.05;4.07;;;;;;;4.64;100.00;99747.19;4120784;28;20241;-46
2022/11/27 00:16:58;;;;;;;5.75;5.25;;;;;;;4.57;100.00;99752.50;4107250;28;20218;-45
2022/11/27 00:19:00;;;;;;;4.50;3.63;;;;;;;4.54;100.00;99747.44;4118516;28;20313;-46
2022/11/27 00:21:04;;;;;;;4.65;4.20;;;;;;;4.57;100.00;99744.38;4132741;28;20210;-45
2022/11/27 00:23:06;;;;;;;4.38;4.07;;;;;;;4.65;100.00;99738.88;4120618;28;20302;-45
2022/11/27 00:25:08;;;;;;;5.07;4.57;;;;;;;4.65;100.00;99738.88;4117531;28;20249;-45
2022/11/27 00:27:10;;;;;;;6.35;5.80;;;;;;;4.58;100.00;99735.22;4104600;28;20215;-45
2022/11/27 00:29:12;;;;;;;5.03;4.35;;;;;;;4.67;100.00;99738.72;4123341;28;20234;-45
2022/11/27 00:31:21;;;;;;;11.48;7.07;;;;;;;4.82;100.00;99735.00;4103939;28;20314;-45
2022/11/27 00:33:23;;;;;;;9.38;4.43;;;;;;;4.78;100.00;99724.69;4117847;28;20449;-46
2022/11/27 00:35:24;;;;;;;5.03;4.60;;;;;;;4.68;100.00;99727.66;4132953;28;20230;-45
2022/11/27 00:37:26;;;;;;;5.28;4.43;;;;;;;4.66;100.00;99718.88;4117187;28;20300;-45
2022/11/27 00:39:28;;;;;;;7.05;5.00;;;;;;;4.67;100.00;99727.88;4118781;28;20202;-45
2022/11/27 00:41:30;;;;;;;6.25;5.00;;;;;;;4.68;100.00;99722.25;4118085;28;20329;-44
2022/11/27 00:43:33;;;;;;;5.55;4.72;;;;;;;4.78;100.00;99724.69;4105885;28;20205;-45
2022/11/27 00:45:49;;;;;;;6.78;6.00;;;;;;;4.82;100.00;99724.16;4120610;28;20607;-45
2022/11/27 00:47:50;;;;;;;6.25;4.78;;;;;;;4.92;100.00;99708.47;4118417;28;20949;-46
2022/11/27 00:49:52;;;;;;;6.38;4.68;;;;;;;4.99;100.00;99714.00;4103034;28;20887;-51
2022/11/27 00:51:54;;;;;;;6.47;5.53;;;;;;;4.97;100.00;99706.03;4118418;28;20249;-49
2022/11/27 00:53:57;;;;;;;4.90;4.40;;;;;;;5.06;100.00;99712.22;4122154;28;20635;-50
2022/11/27 00:55:59;;;;;;;6.70;5.40;;;;;;;5.17;100.00;99708.00;4116279;28;20214;-49
2022/11/27 00:58:01;;;;;;;6.03;5.50;;;;;;;5.13;100.00;99697.72;4117512;28;20209;-49
2022/11/27 01:00:05;;;;;;;5.38;4.47;;;;;;;5.16;100.00;99705.50;4116929;28;20210;-49
2022/11/27 01:02:07;;;;;;;5.47;4.97;;;;;;;5.23;100.00;99706.44;4115972;28;20684;-49
2022/11/27 01:04:13;;;;;;;5.88;4.78;;;;;;;5.32;100.00;99694.44;4121672;28;20585;-49
2022/11/27 01:06:16;;;;;;;5.28;4.65;;;;;;;5.30;100.00;99707.38;4122061;28;20241;-49
2022/11/27 01:08:18;;;;;;;4.85;4.45;;;;;;;5.31;100.00;99711.75;4135284;28;20238;-49
2022/11/27 01:10:20;;;;;;;4.68;4.32;;;;;;;5.42;100.00;99709.41;4096042;28;20263;-49
2022/11/27 01:12:22;;;;;;;7.30;5.60;;;;;;;5.52;100.00;99711.84;4105680;28;20211;-49
2022/11/27 01:14:23;;;;;;;6.75;4.78;;;;;;;5.45;100.00;99710.91;4119862;28;20321;-49
2022/11/27 01:16:27;;;;;;;4.93;3.90;;;;;;;5.50;100.00;99712.00;4106903;28;20350;-49
2022/11/27 01:18:29;;;;;;;4.85;4.40;;;;;;;5.44;100.00;99709.22;4123645;28;20206;-50
2022/11/27 01:20:31;;;;;;;5.30;4.90;;;;;;;5.43;100.00;99700.22;4137849;28;21074;-49
2022/11/27 01:22:32;;;;;;;4.97;4.43;;;;;;;5.44;100.00;99704.63;4121292;28;20213;-50
2022/11/27 01:24:34;;;;;;;5.35;4.85;;;;;;;5.58;100.00;99705.66;4120717;28;20237;-49
2022/11/27 01:26:36;;;;;;;8.68;3.92;;;;;;;5.54;100.00;99699.75;4138182;28;20289;-49
2022/11/27 01:28:38;;;;;;;6.07;5.47;;;;;;;5.41;100.00;99687.88;4120777;28;20249;-48
2022/11/27 01:30:40;;;;;;;5.65;5.18;;;;;;;5.32;100.00;99695.31;4137264;28;20238;-49
2022/11/27 01:32:42;;;;;;;4.85;4.40;;;;;;;5.38;100.00;99689.13;4111131;28;20688;-49
2022/11/27 01:34:44;;;;;;;5.13;4.68;;;;;;;5.40;100.00;99697.06;4124318;28;20228;-51
2022/11/27 01:36:46;;;;;;;6.30;5.05;;;;;;;5.49;100.00;99690.50;4104177;28;20294;-49
2022/11/27 01:38:48;;;;;;;6.88;6.28;;;;;;;5.57;100.00;99690.41;4122982;28;22503;-49
2022/11/27 01:40:56;;;;;;;5.70;5.20;;;;;;;5.53;100.00;99687.22;4120702;28;20242;-49
2022/11/27 01:42:58;;;;;;;8.20;4.43;;;;;;;5.63;100.00;99695.06;4122160;28;20209;-49
2022/11/27 01:45:00;;;;;;;6.07;5.57;;;;;;;5.47;100.00;99689.84;4122215;28;20233;-49
2022/11/27 01:47:11;;;;;;;7.38;6.60;;;;;;;5.55;100.00;99690.59;4135950;28;20299;-49
2022/11/27 01:49:41;;;;;;;7.20;5.05;;;;;;;5.59;100.00;99696.47;4120756;28;20244;-49
2022/11/27 01:51:46;;;;;;;5.30;4.80;;;;;;;5.36;100.00;99695.75;4126140;28;20202;-49
2022/11/27 01:53:49;;;;;;;4.88;4.50;;;;;;;5.43;100.00;99702.94;4109942;28;20210;-50
2022/11/27 01:55:55;;;;;;;6.10;4.72;;;;;;;5.45;100.00;99700.06;4121410;28;20214;-49
2022/11/27 01:58:00;;;;;;;5.93;5.28;;;;;;;5.56;100.00;99694.97;4137201;28;20214;-49
2022/11/27 02:00:05;;;;;;;7.63;5.63;;;;;;;5.54;100.00;99701.63;4122625;28;20762;-49
2022/11/27 02:02:07;;;;;;;5.07;4.40;;;;;;;5.63;100.00;99703.22;4131697;28;20303;-49
2022/11/27 02:04:08;;;;;;;7.03;5.07;;;;;;;5.61;100.00;99710.69;4122127;28;20599;-49
2022/11/27 02:06:12;;;;;;;10.52;5.05;;;;;;;5.61;100.00;99718.84;4098595;28;20714;-49
2022/11/27 02:08:15;;;;;;;6.10;5.60;;;;;;;5.62;100.00;99717.84;4119314;28;20301;-50
2022/11/27 02:10:17;;;;;;;5.75;5.28;;;;;;;5.65;100.00;99712.00;4120054;28;20234;-49
2022/11/27 02:12:35;;;;;;;6.25;5.75;;;;;;;5.69;100.00;99713.31;4121299;28;20300;-49
2022/11/27 02:14:52;;;;;;;8.20;5.85;;;;;;;5.68;100.00;99706.19;4120713;28;20317;-49
2022/11/27 02:17:07;;;;;;;5.90;5.45;;;;;;;5.71;100.00;99705.81;4119947;28;20304;-49
2022/11/27 02:19:14;;;;;;;5.55;5.05;;;;;;;5.73;100.00;99691.03;4121928;28;20210;-50
2022/11/27 02:21:36;;;;;;;6.60;5.57;;;;;;;5.73;100.00;99682.03;4107124;28;20301;-50
2022/11/27 02:23:40;;;;;;;6.63;6.00;;;;;;;5.69;100.00;99675.31;4118093;28;20314;-50
2022/11/27 02:25:59;;;;;;;4.80;4.13;;;;;;;5.64;100.00;99666.88;4118889;28;20695;-50
2022/11/27 02:28:27;;;;;;;6.75;5.85;;;;;;;5.66;100.00;99664.81;4120301;28;20262;-50
2022/11/27 02:30:39;;;;;;;5.43;4.88;;;;;;;5.71;100.00;99656.94;4122610;28;20214;-50
2022/11/27 02:32:58;;;;;;;5.72;5.22;;;;;;;5.79;100.00;99651.38;4122184;28;20301;-49
2022/11/27 02:35:05;;;;;;;5.40;4.90;;;;;;;5.70;100.00;99647.13;4120761;28;20258;-50
2022/11/27 02:37:09;;;;;;;5.43;4.38;;;;;;;5.71;100.00;99651.50;4119878;28;20206;-49
2022/11/27 02:39:16;;;;;;;8.32;5.13;;;;;;;5.69;100.00;99653.59;4122453;28;20261;-49
2022/11/27 02:41:23;;;;;;;8.80;5.30;;;;;;;5.68;100.00;99655.44;4118948;28;20329;-50
2022/11/27 02:43:40;;;;;;;6.00;5.47;;;;;;;5.70;100.00;99655.28;4120110;28;20234;-49
2022/11/27 02:45:45;;;;;;;6.45;5.65;;;;;;;5.70;100.00;99660.69;4122289;28;20357;-49
2022/11/27 02:47:49;;;;;;;8.68;5.45;;;;;;;5.68;100.00;99649.16;4119425;28;20211;-50
2022/11/27 02:49:55;;;;;;;7.70;5.32;;;;;;;5.53;100.00;99651.06;4114150;28;20264;-49
2022/11/27 02:51:58;;;;;;;5.07;4.40;;;;;;;5.52;100.00;99652.13;4120496;28;20214;-49
2022/11/27 02:54:02;;;;;;;4.68;4.30;;;;;;;5.40;100.00;99649.06;4119073;28;20222;-50
2022/11/27 02:56:07;;;;;;;5.30;4.85;;;;;;;5.28;100.00;99645.13;4121305;28;20667;-50
2022/11/27 02:58:12;;;;;;;6.38;5.82;;;;;;;5.28;100.00;99649.72;4122885;28;20210;-49
2022/11/27 03:00:14;;;;;;;5.43;4.97;;;;;;;5.36;100.00;99639.59;4136127;28;20320;-50
2022/11/27 03:02:20;;;;;;;6.20;5.60;;;;;;;5.33;100.00;99641.84;4106322;28;20211;-49
2022/11/27 03:04:27;;;;;;;6.32;5.28;;;;;;;5.41;100.00;99633.59;4124078;28;20226;-49
2022/11/27 03:06:32;;;;;;;7.95;6.03;;;;;;;5.42;100.00;99629.88;4133965;28;20205;-49
2022/11/27 03:08:40;;;;;;;5.07;4.63;;;;;;;5.33;100.00;99621.00;4122149;28;20205;-49
2022/11/27 03:10:47;;;;;;;15.10;5.22;;;;;;;5.28;100.00;99619.84;4116882;28;20312;-49
2022/11/27 03:12:49;;;;;;;4.93;4.53;;;;;;;5.30;100.00;99623.25;4118330;28;20214;-49
2022/11/27 03:14:51;;;;;;;6.43;5.82;;;;;;;5.17;100.00;99612.22;4122356;28;20273;-49
2022/11/27 03:17:16;;;;;;;7.43;5.38;;;;;;;5.24;100.00;99605.00;4121369;28;20236;-49
2022/11/27 03:19:18;;;;;;;4.57;4.28;;;;;;;5.33;100.00;99612.00;4135193;28;20313;-48
2022/11/27 03:21:31;;;;;;;6.20;5.47;;;;;;;5.42;100.00;99608.16;4135786;28;20284;-50
2022/11/27 03:23:33;;;;;;;6.32;5.72;;;;;;;5.46;100.00;99609.44;4118345;28;20631;-50
2022/11/27 03:25:35;;;;;;;6.95;4.93;;;;;;;5.54;100.00;99606.59;4107162;28;20326;-50
2022/11/27 03:27:42;;;;;;;7.20;5.78;;;;;;;5.53;100.00;99605.78;4123541;28;20235;-50
2022/11/27 03:29:47;;;;;;;5.35;4.90;;;;;;;5.51;100.00;99607.00;4121711;28;20626;-49
2022/11/27 03:31:50;;;;;;;4.95;4.03;;;;;;;5.28;100.00;99601.72;4120842;28;20246;-49
2022/11/27 03:33:53;;;;;;;6.00;5.40;;;;;;;5.09;100.00;99601.47;4123409;28;20241;-50
2022/11/27 03:35:55;;;;;;;9.90;5.95;;;;;;;5.17;100.00;99587.81;4120001;28;20612;-49
2022/11/27 03:37:56;;;;;;;6.93;4.60;;;;;;;5.09;100.00;99594.16;4120262;28;20657;-48
2022/11/27 03:39:58;;;;;;;7.05;5.15;;;;;;;5.03;100.00;99591.38;4117537;28;20241;-50
2022/11/27 03:42:18;;;;;;;5.93;5.38;;;;;;;5.02;100.00;99589.72;4100795;28;20215;-50
2022/11/27 03:44:31;;;;;;;7.60;5.63;;;;;;;4.77;100.00;99580.19;4116913;28;20316;-49
2022/11/27 03:46:49;;;;;;;7.40;6.72;;;;;;;4.76;100.00;99589.34;4124384;28;20234;-49
2022/11/27 03:49:41;;;;;;;9.13;5.80;;;;;;;4.83;100.00;99587.56;4136486;28;21650;-48
2022/11/27 03:52:30;;;;;;;7.68;6.97;;;;;;;4.86;100.00;99591.78;4130352;28;20348;-49
2022/11/27 03:54:55;;;;;;;7.82;7.13;;;;;;;4.93;100.00;99590.81;4119744;28;20308;-49
2022/11/27 03:57:03;;;;;;;7.30;6.60;;;;;;;4.78;100.00;99586.41;4122721;28;20213;-49
2022/11/27 03:59:37;;;;;;;6.00;5.40;;;;;;;4.81;100.00;99578.75;4124012;28;20288;-49
2022/11/27 04:01:39;;;;;;;10.27;7.50;;;;;;;4.86;100.00;99575.50;4117467;28;20210;-51
2022/11/27 04:03:41;;;;;;;6.47;5.82;;;;;;;4.94;100.00;99581.66;4123087;28;20206;-49
2022/11/27 04:05:43;;;;;;;6.03;5.43;;;;;;;4.99;100.00;99584.63;4122549;28;20229;-49
2022/11/27 04:07:45;;;;;;;6.13;5.63;;;;;;;5.10;100.00;99579.56;4120358;28;20209;-50
2022/11/27 04:09:46;;;;;;;7.03;6.45;;;;;;;5.09;100.00;99588.75;4107268;28;20238;-49
2022/11/27 04:11:48;;;;;;;9.27;7.95;;;;;;;5.22;100.00;99578.06;4123578;28;20226;-49
2022/11/27 04:13:53;;;;;;;6.78;5.85;;;;;;;5.22;100.00;99579.94;4116433;28;20208;-50
2022/11/27 04:15:55;;;;;;;7.20;6.57;;;;;;;5.01;100.00;99582.56;4120922;28;20301;-49
2022/11/27 04:17:56;;;;;;;6.03;5.55;;;;;;;4.89;100.00;99577.81;4118919;28;20224;-49
2022/11/27 04:19:58;;;;;;;5.70;4.88;;;;;;;5.00;100.00;99580.91;4121779;28;20248;-49
2022/11/27 04:22:00;;;;;;;5.20;4.80;;;;;;;5.07;100.00;99579.09;4105124;28;20211;-49
2022/11/27 04:24:02;;;;;;;5.60;5.13;;;;;;;5.06;100.00;99579.31;4123774;28;20525;-50
2022/11/27 04:26:04;;;;;;;9.45;4.68;;;;;;;4.93;100.00;99569.13;4104177;28;20293;-49
2022/11/27 04:28:06;;;;;;;8.30;7.45;;;;;;;4.98;100.00;99561.28;4119584;28;20221;-50
2022/11/27 04:30:08;;;;;;;6.30;5.82;;;;;;;5.04;100.00;99555.09;4133767;28;20219;-50
2022/11/27 04:32:10;;;;;;;6.63;5.82;;;;;;;4.87;100.00;99550.88;4116866;28;20202;-50
2022/11/27 04:34:12;;;;;;;6.93;6.35;;;;;;;4.80;100.00;99547.25;4116499;28;20818;-49
2022/11/27 04:36:14;;;;;;;7.72;7.05;;;;;;;4.99;100.00;99543.97;4121564;28;20584;-50
2022/11/27 04:38:16;;;;;;;5.65;5.05;;;;;;;4.97;100.00;99555.00;4131805;28;20583;-49
2022/11/27 04:40:18;;;;;;;7.35;6.65;;;;;;;5.11;100.00;99550.59;4123217;28;20218;-49
2022/11/27 04:42:20;;;;;;;7.78;6.43;;;;;;;5.11;100.00;99561.44;4126033;28;20300;-50
2022/11/27 04:44:22;;;;;;;4.93;4.57;;;;;;;5.23;100.00;99560.75;4126636;28;20766;-50
2022/11/27 04:46:24;;;;;;;7.32;6.45;;;;;;;5.15;100.00;99551.91;4124358;28;20704;-49
2022/11/27 04:48:26;;;;;;;6.85;5.95;;;;;;;5.20;100.00;99552.16;4121414;28;20293;-49
2022/11/27 04:50:28;;;;;;;6.07;5.53;;;;;;;5.17;100.00;99563.38;4124518;28;20217;-49
2022/11/27 04:52:30;;;;;;;6.18;5.57;;;;;;;5.20;100.00;99565.72;4122566;28;20229;-49
2022/11/27 04:54:31;;;;;;;5.05;4.68;;;;;;;5.06;100.00;99569.28;4122674;28;20238;-49
2022/11/27 04:56:33;;;;;;;4.57;4.07;;;;;;;5.05;100.00;99564.91;4141339;28;20205;-49
2022/11/27 04:58:35;;;;;;;6.13;5.63;;;;;;;5.12;100.00;99568.53;4126078;28;20658;-49
2022/11/27 05:00:36;;;;;;;6.00;5.47;;;;;;;5.14;100.00;99566.47;4120796;28;20213;-49
2022/11/27 05:02:39;;;;;;;7.18;5.43;;;;;;;5.06;100.00;99572.00;4110217;28;20246;-50
2022/11/27 05:04:41;;;;;;;6.63;4.93;;;;;;;5.02;100.00;99578.00;4123412;28;20244;-49
2022/11/27 05:06:43;;;;;;;6.43;5.80;;;;;;;5.10;100.00;99567.91;4123153;28;20350;-49
2022/11/27 05:08:44;;;;;;;6.20;4.75;;;;;;;4.92;100.00;99572.88;4108282;28;20211;-49
2022/11/27 05:10:46;;;;;;;5.28;4.95;;;;;;;4.83;100.00;99567.72;4124154;28;20261;-50
2022/11/27 05:12:48;;;;;;;5.28;4.78;;;;;;;4.92;100.00;99563.88;4110061;28;20226;-49
2022/11/27 05:14:50;;;;;;;5.13;4.72;;;;;;;4.91;100.00;99576.63;4138808;28;20283;-50
2022/11/27 05:16:53;;;;;;;5.63;5.22;;;;;;;5.01;100.00;99577.16;4117445;28;20257;-49
2022/11/27 05:18:55;;;;;;;7.85;5.55;;;;;;;5.10;100.00;99581.47;4117055;28;20920;-50
2022/11/27 05:20:57;;;;;;;5.97;5.47;;;;;;;5.10;100.00;99586.88;4122003;28;20245;-50
2022/11/27 05:22:59;;;;;;;5.30;4.63;;;;;;;5.15;100.00;99587.16;4118597;28;20215;-49
2022/11/27 05:25:01;;;;;;;5.32;4.93;;;;;;;5.19;100.00;99569.47;4121767;28;20724;-49
2022/11/27 05:27:03;;;;;;;5.70;5.30;;;;;;;5.09;100.00;99569.75;4123052;28;20257;-50
2022/11/27 05:29:06;;;;;;;5.25;4.68;;;;;;;5.28;100.00;99563.72;4128495;28;20687;-50
2022/11/27 05:31:07;;;;;;;5.10;4.70;;;;;;;5.19;100.00;99550.47;4123768;28;20325;-49
2022/11/27 05:33:09;;;;;;;4.88;4.47;;;;;;;5.21;100.00;99546.53;4126864;28;20591;-50
2022/11/27 05:35:11;;;;;;;4.32;3.95;;;;;;;5.23;100.00;99543.63;4136735;28;20255;-50
2022/11/27 05:37:13;;;;;;;5.18;4.78;;;;;;;5.12;100.00;99541.41;4121083;28;20273;-49
2022/11/27 05:39:20;;;;;;;4.95;4.57;;;;;;;5.18;100.00;99537.94;4124360;28;20252;-49
2022/11/27 05:41:22;;;;;;;6.68;6.18;;;;;;;5.10;100.00;99532.63;4124079;28;20264;-51
2022/11/27 05:43:24;;;;;;;5.43;5.03;;;;;;;5.13;100.00;99537.66;4133684;28;20357;-49
2022/11/27 05:45:26;;;;;;;6.15;5.65;;;;;;;5.15;100.00;99541.03;4121553;28;20257;-50
2022/11/27 05:47:28;;;;;;;8.23;7.43;;;;;;;5.01;100.00;99550.03;4123198;28;20211;-51
2022/11/27 05:49:29;;;;;;;5.35;4.85;;;;;;;5.15;100.00;99546.47;4118815;28;20207;-50
2022/11/27 05:51:31;;;;;;;6.15;5.65;;;;;;;5.22;100.00;99541.97;4137328;28;20273;-49
2022/11/27 05:53:33;;;;;;;6.00;5.50;;;;;;;5.21;100.00;99540.25;4122544;28;20217;-51
2022/11/27 05:55:35;;;;;;;6.20;5.63;;;;;;;5.18;100.00;99535.22;4124217;28;20269;-49
2022/11/27 05:57:37;;;;;;;6.55;5.82;;;;;;;5.22;100.00;99533.81;4121255;28;20241;-50
2022/11/27 05:59:39;;;;;;;6.18;5.68;;;;;;;5.22;100.00;99541.97;4102614;28;20309;-49
2022/11/27 06:01:41;;;;;;;7.47;6.75;;;;;;;5.28;100.00;99546.59;4118472;28;20741;-49
2022/11/27 06:03:43;;;;;;;6.05;5.57;;;;;;;5.34;100.00;99546.69;4122543;28;20221;-48
2022/11/27 06:05:45;;;;;;;5.10;4.72;;;;;;;5.12;100.00;99541.41;4122222;28;20217;-49
2022/11/27 06:07:47;;;;;;;5.05;4.43;;;;;;;5.21;100.00;99546.53;4122836;28;20235;-50
2022/11/27 06:09:49;;;;;;;6.47;5.40;;;;;;;5.22;100.00;99541.97;4104583;28;20984;-49
2022/11/27 06:11:51;;;;;;;8.05;4.97;;;;;;;4.91;100.00;99524.25;4135168;28;20581;-49
2022/11/27 06:13:52;;;;;;;5.53;4.78;;;;;;;4.88;100.00;99528.16;4136593;28;20248;-50
2022/11/27 06:15:54;;;;;;;4.78;4.38;;;;;;;4.87;100.00;99523.78;4126936;28;20927;-49
2022/11/27 06:17:56;;;;;;;5.47;4.97;;;;;;;4.90;100.00;99515.28;4122068;28;20328;-50
2022/11/27 06:19:58;;;;;;;6.15;4.70;;;;;;;4.86;100.00;99519.38;4124331;28;20305;-49
2022/11/27 06:22:00;;;;;;;5.78;5.18;;;;;;;4.81;100.00;99508.25;4120478;28;20202;-49
2022/11/27 06:24:02;;;;;;;5.15;4.65;;;;;;;4.83;100.00;99498.09;4104237;28;20299;-50
2022/11/27 06:26:16;;;;;;;16.50;5.35;;;;;;;4.86;100.00;99497.69;4113454;28;20202;-50
2022/11/27 06:28:18;;;;;;;5.38;4.88;;;;;;;5.06;100.00;99506.09;4137238;28;20212;-50
2022/11/27 06:30:20;;;;;;;7.32;4.97;;;;;;;5.01;100.00;99495.78;4105195;28;20242;-49
2022/11/27 06:32:21;;;;;;;6.10;5.10;;;;;;;4.95;100.00;99493.00;4122647;28;20261;-50
2022/11/27 06:34:23;;;;;;;6.13;5.63;;;;;;;4.77;100.00;99487.16;4123407;28;20832;-49
2022/11/27 06:36:31;;;;;;;7.47;4.55;;;;;;;4.67;100.00;99484.72;4120259;28;20288;-50
2022/11/27 06:38:34;;;;;;;5.60;4.85;;;;;;;4.58;100.00;99476.88;4122376;28;20268;-49
2022/11/27 06:40:35;;;;;;;5.40;4.90;;;;;;;4.56;100.00;99473.53;4119623;28;20210;-49
2022/11/27 06:42:37;;;;;;;5.60;4.90;;;;;;;4.73;100.00;99478.56;4123089;28;20198;-50
2022/11/27 06:44:39;;;;;;;6.88;6.18;;;;;;;4.76;100.00;99480.91;4120024;28;20229;-49
2022/11/27 06:46:41;;;;;;;5.43;4.93;;;;;;;4.76;100.00;99480.91;4118346;28;20221;-49
2022/11/27 06:48:45;;;;;;;5.45;4.57;;;;;;;4.87;100.00;99485.00;4119420;28;20203;-49
2022/11/27 06:50:47;;;;;;;6.57;5.97;;;;;;;4.73;100.00;99477.72;4121039;28;20696;-49
2022/11/27 06:52:49;;;;;;;7.30;6.60;;;;;;;4.69;100.00;99474.56;4116699;28;22031;-49
2022/11/27 06:54:50;;;;;;;8.57;6.55;;;;;;;4.61;100.00;99469.22;4133507;28;20235;-49
2022/11/27 06:56:52;;;;;;;9.90;9.00;;;;;;;4.51;100.00;99462.41;4118645;28;20213;-48
2022/11/27 06:58:56;;;;;;;7.53;6.70;;;;;;;4.43;100.00;99470.66;4118864;28;20268;-49
2022/11/27 07:01:00;;;;;;;7.30;6.50;;;;;;;4.51;100.00;99471.41;4118479;28;20657;-50
2022/11/27 07:03:02;;;;;;;7.75;7.05;;;;;;;4.63;100.00;99475.31;4122000;28;20257;-49
2022/11/27 07:05:03;;;;;;;9.15;6.63;;;;;;;4.54;100.00;99465.59;4134032;28;20340;-49
2022/11/27 07:07:05;;;;;;;6.30;5.63;;;;;;;4.57;100.00;99473.34;4118250;28;20241;-49
2022/11/27 07:09:08;;;;;;;6.13;5.50;;;;;;;4.40;100.00;99468.31;4121662;28;20289;-49
2022/11/27 07:11:17;;;;;;;7.25;6.63;;;;;;;4.50;100.00;99469.72;4120151;28;20218;-49
2022/11/27 07:13:19;;;;;;;7.60;6.70;;;;;;;4.61;100.00;99466.50;4115299;28;20208;-49
2022/11/27 07:15:20;;;;;;;6.82;6.13;;;;;;;4.61;100.00;99466.50;4116907;28;21027;-49
2022/11/27 07:17:22;;;;;;;6.70;5.90;;;;;;;4.68;100.00;99458.47;4119991;28;20297;-49
2022/11/27 07:19:24;;;;;;;7.40;6.72;;;;;;;4.74;100.00;99465.84;4122375;28;20680;-49
2022/11/27 07:21:26;;;;;;;9.20;7.15;;;;;;;4.76;100.00;99467.34;4106234;28;20218;-49
2022/11/27 07:23:28;;;;;;;7.72;6.95;;;;;;;4.82;100.00;99474.72;4116333;28;20217;-49
2022/11/27 07:25:30;;;;;;;8.10;7.30;;;;;;;4.82;100.00;99476.59;4104730;28;20768;-50
2022/11/27 07:27:31;;;;;;;6.40;5.80;;;;;;;4.87;100.00;99472.25;4119216;28;20312;-49
2022/11/27 07:29:33;;;;;;;7.10;6.40;;;;;;;4.90;100.00;99474.59;4123070;28;20241;-50
2022/11/27 07:31:35;;;;;;;7.25;6.65;;;;;;;5.08;100.00;99475.84;4121213;28;20278;-49
2022/11/27 07:33:37;;;;;;;7.05;5.65;;;;;;;4.81;100.00;99466.78;4119019;28;20249;-49
2022/11/27 07:35:39;;;;;;;6.25;5.75;;;;;;;4.79;100.00;99458.81;4104051;28;20270;-50
2022/11/27 07:37:40;;;;;;;6.65;5.97;;;;;;;4.69;100.00;99463.72;4120273;28;20210;-50
2022/11/27 07:39:42;;;;;;;6.20;5.70;;;;;;;4.78;100.00;99461.72;4135311;28;20237;-50
2022/11/27 07:42:02;;;;;;;7.03;6.38;;;;;;;4.87;100.00;99463.31;4118201;28;20213;-49
2022/11/27 07:44:24;;;;;;;6.75;6.05;;;;;;;4.75;100.00;99446.69;4134343;28;20232;-49
2022/11/27 07:46:26;;;;;;;7.63;6.88;;;;;;;4.72;100.00;99446.19;4119993;28;20699;-50
2022/11/27 07:48:27;;;;;;;6.60;6.00;;;;;;;4.86;100.00;99443.47;4119889;28;20206;-51
2022/11/27 07:50:29;;;;;;;9.70;6.45;;;;;;;4.80;100.00;99449.66;4133902;28;20300;-49
2022/11/27 07:52:31;;;;;;;6.28;5.68;;;;;;;4.91;100.00;99449.16;4119644;28;20313;-49
2022/11/27 07:54:40;;;;;;;7.40;6.75;;;;;;;4.80;100.00;99432.56;4103287;28;20243;-50
2022/11/27 07:56:42;;;;;;;7.03;5.97;;;;;;;4.83;100.00;99438.44;4120781;28;20265;-49
2022/11/27 07:58:44;;;;;;;6.72;6.07;;;;;;;4.71;100.00;99434.53;4102947;28;20604;-49
2022/11/27 08:00:47;;;;;;;7.25;6.65;;;;;;;4.85;100.00;99436.38;4117715;28;20217;-50
2022/11/27 08:02:49;;;;;;;6.95;6.18;;;;;;;4.88;100.00;99433.25;4118779;28;20603;-49
2022/11/27 08:04:50;;;;;;;7.25;6.65;;;;;;;4.99;100.00;99440.91;4131633;28;20236;-49
2022/11/27 08:06:52;;;;;;;8.00;6.78;;;;;;;5.00;100.00;99442.56;4136231;28;20259;-49
2022/11/27 08:08:54;;;;;;;6.38;5.88;;;;;;;5.14;100.00;99452.53;4119320;28;20635;-49
2022/11/27 08:10:56;;;;;;;6.47;5.82;;;;;;;5.12;100.00;99443.75;4120471;28;20214;-49
2022/11/27 08:12:58;;;;;;;6.63;6.03;;;;;;;5.13;100.00;99445.44;4119509;28;20257;-49
2022/11/27 08:15:00;;;;;;;8.90;7.97;;;;;;;5.23;100.00;99445.97;4125273;28;20272;-49
2022/11/27 08:17:02;;;;;;;10.23;7.32;;;;;;;5.28;100.00;99448.91;4122451;28;20261;-49
2022/11/27 08:19:04;;;;;;;8.38;7.35;;;;;;;5.23;100.00;99445.97;4121672;28;20309;-49
2022/11/27 08:21:05;;;;;;;8.82;6.88;;;;;;;5.25;100.00;99443.91;4121416;28;20218;-49
2022/11/27 08:23:07;;;;;;;8.52;6.45;;;;;;;5.27;100.00;99447.25;4136192;28;20209;-49
2022/11/27 08:25:09;;;;;;;7.57;6.82;;;;;;;5.35;100.00;99439.00;4121000;28;20268;-49
2022/11/27 08:27:11;;;;;;;9.68;6.75;;;;;;;5.33;100.00;99449.19;4106861;28;20320;-50
2022/11/27 08:29:13;;;;;;;8.07;7.00;;;;;;;5.35;100.00;99461.53;4109207;28;20214;-49
2022/11/27 08:31:14;;;;;;;9.20;7.90;;;;;;;5.35;100.00;99463.41;4135755;28;20307;-49
2022/11/27 08:33:16;;;;;;;6.32;5.70;;;;;;;5.46;100.00;99457.44;4119510;28;20238;-49
2022/11/27 08:35:18;;;;;;;7.03;6.32;;;;;;;5.45;100.00;99455.78;4122699;28;20476;-48
2022/11/27 08:37:20;;;;;;;6.80;6.28;;;;;;;5.41;100.00;99449.03;4124071;28;20249;-49
2022/11/27 08:39:22;;;;;;;6.93;5.72;;;;;;;5.41;100.00;99444.47;4110360;28;20873;-50
2022/11/27 08:41:24;;;;;;;7.82;6.93;;;;;;;5.40;100.00;99429.22;4124900;28;20234;-49
2022/11/27 08:43:27;;;;;;;7.07;6.05;;;;;;;5.40;100.00;99425.66;4122344;28;20608;-49
2022/11/27 08:45:28;;;;;;;5.75;5.22;;;;;;;5.53;100.00;99425.78;4126055;28;20317;-49
2022/11/27 08:47:31;;;;;;;7.57;6.88;;;;;;;5.57;100.00;99418.94;4110595;28;20285;-49
2022/11/27 08:49:33;;;;;;;6.28;5.68;;;;;;;5.53;100.00;99414.91;4110671;28;20310;-49
2022/11/27 08:51:35;;;;;;;7.40;6.47;;;;;;;5.49;100.00;99413.66;4121663;28;20774;-50
2022/11/27 08:53:37;;;;;;;8.35;6.78;;;;;;;5.48;100.00;99411.94;4114346;28;20302;-49
2022/11/27 08:55:38;;;;;;;6.47;5.80;;;;;;;5.51;100.00;99417.00;4124496;28;20280;-49
2022/11/27 08:57:40;;;;;;;6.97;5.90;;;;;;;5.58;100.00;99412.47;4120768;28;20234;-49
2022/11/27 08:59:42;;;;;;;6.07;5.57;;;;;;;5.65;100.00;99405.22;4138529;28;20320;-50
2022/11/27 09:01:44;;;;;;;6.03;5.43;;;;;;;5.67;100.00;99395.84;4123050;28;20799;-49
2022/11/27 09:03:46;;;;;;;8.25;6.28;;;;;;;5.81;100.00;99394.06;4110571;28;20870;-49
2022/11/27 09:05:48;;;;;;;5.35;4.78;;;;;;;5.94;100.00;99386.00;4121804;28;20631;-50
2022/11/27 09:07:50;;;;;;;5.40;5.00;;;;;;;5.68;100.00;99385.78;4119409;28;20596;-50
2022/11/27 09:09:52;;;;;;;5.55;5.05;;;;;;;5.67;100.00;99375.97;4107505;28;20298;-49
2022/11/27 09:11:54;;;;;;;5.75;5.25;;;;;;;5.43;100.00;99377.25;4126695;28;20223;-49
2022/11/27 09:13:59;;;;;;;6.00;5.00;;;;;;;5.59;100.00;99381.56;4126595;28;20261;-49
2022/11/27 09:16:09;;;;;;;4.82;4.43;;;;;;;5.48;100.00;99380.22;4122806;28;20249;-50
2022/11/27 09:18:10;;;;;;;5.32;4.88;;;;;;;5.68;100.00;99381.22;4120552;28;20206;-49
2022/11/27 09:20:14;;;;;;;4.03;3.72;;;;;;;5.75;100.00;99376.66;4121208;28;20238;-50
2022/11/27 09:22:16;;;;;;;5.75;5.25;;;;;;;5.82;100.00;99387.63;4124130;28;20244;-50
2022/11/27 09:24:18;;;;;;;5.22;4.72;;;;;;;5.82;100.00;99376.75;4130535;28;20577;-48
2022/11/27 09:26:22;;;;;;;4.55;4.18;;;;;;;5.66;100.00;99382.44;4107564;28;20345;-49
2022/11/27 09:28:24;;;;;;;4.70;4.22;;;;;;;5.85;100.00;99387.22;4121365;28;20232;-49
2022/11/27 09:30:31;;;;;;;5.68;5.13;;;;;;;6.02;100.00;99383.16;4118975;28;20247;-49
2022/11/27 09:32:33;;;;;;;5.15;4.53;;;;;;;6.06;100.00;99376.28;4119735;28;20320;-49
2022/11/27 09:34:35;;;;;;;5.57;5.07;;;;;;;6.09;100.00;99392.19;4125401;28;20226;-50
2022/11/27 09:36:38;;;;;;;5.80;5.22;;;;;;;6.18;100.00;99388.25;4121898;28;20210;-50
2022/11/27 09:38:41;;;;;;;5.18;4.45;;;;;;;6.25;100.00;99383.69;4122474;28;20618;-49
2022/11/27 09:40:50;;;;;;;6.15;5.65;;;;;;;6.21;100.00;99385.97;4120945;28;20342;-50
2022/11/27 09:43:04;;;;;;;6.47;5.80;;;;;;;6.26;100.00;99374.50;4121238;28;20343;-49
2022/11/27 09:45:10;;;;;;;4.80;4.40;;;;;;;6.29;100.00;99382.25;4107290;28;20234;-50